Terminal Aerodrome Forecast
Issued by NWS Charleston, WV

Home | Current Version | Previous Version | Text Only | Print | Product List | Glossary On
Versions: 1 2 3 4 5 6 7 8 9 10 11 12 13 14 15 16 17 18 19 20 21 22 23 24 25 26
767
FTUS41 KRLX 050538
TAFBKW
TAF
KBKW 050538Z 0506/0606 29005KT P6SM BKN020 OVC035
     FM050700 31004KT 3SM SHRA OVC015
     FM050800 31005KT 2SM -SHRA BR BKN009
     FM051500 30007KT 3SM SHRA BKN012=

USA.gov is the U.S. government's official web portal to all federal, state and local government web resources and services.